createdAt,value
2023-05-05T00:01:46.955Z,15.26
2023-05-05T00:04:13.986Z,15.29
2023-05-05T00:06:40.984Z,15.24
2023-05-05T00:09:07.978Z,15.23
2023-05-05T00:11:35.339Z,15.21
2023-05-05T00:14:02.268Z,15.19
2023-05-05T00:16:29.261Z,15.16
2023-05-05T00:18:57.929Z,15.10
2023-05-05T00:21:25.001Z,15.09
2023-05-05T00:23:51.950Z,15.02
2023-05-05T00:26:18.884Z,14.95
2023-05-05T00:28:49.841Z,14.90
2023-05-05T00:31:17.206Z,14.93
2023-05-05T00:33:44.227Z,14.95
2023-05-05T00:36:12.605Z,14.99
2023-05-05T00:38:39.524Z,15.00
2023-05-05T00:41:06.467Z,15.01
2023-05-05T00:43:36.454Z,15.02
2023-05-05T00:46:09.788Z,14.98
2023-05-05T00:48:36.815Z,14.98
2023-05-05T00:51:11.839Z,14.97
2023-05-05T00:53:43.067Z,14.95
2023-05-05T00:56:13.071Z,14.94
2023-05-05T00:58:41.589Z,14.93
2023-05-05T01:01:09.193Z,14.91
2023-05-05T01:03:37.308Z,14.92
2023-05-05T01:06:15.717Z,14.92
2023-05-05T01:08:56.393Z,14.90
2023-05-05T01:11:30.119Z,14.87
2023-05-05T01:14:06.049Z,14.88
2023-05-05T01:16:35.147Z,14.91
2023-05-05T01:19:20.507Z,14.93
2023-05-05T01:21:53.773Z,14.92
2023-05-05T01:24:46.634Z,14.93
2023-05-05T01:27:38.423Z,14.83
2023-05-05T01:30:28.679Z,14.72
2023-05-05T01:33:03.928Z,14.68
2023-05-05T01:35:33.201Z,14.64
2023-05-05T01:38:06.036Z,14.57
2023-05-05T01:40:39.129Z,14.52
2023-05-05T01:43:08.573Z,14.49
2023-05-05T01:45:38.954Z,14.46
2023-05-05T01:48:09.332Z,14.47
2023-05-05T01:50:36.963Z,14.44
2023-05-05T01:53:04.929Z,14.41
2023-05-05T01:55:33.587Z,14.41
2023-05-05T01:58:02.530Z,14.42
2023-05-05T02:00:31.271Z,14.42
2023-05-05T02:03:00.635Z,14.43
2023-05-05T02:05:30.057Z,14.45
2023-05-05T02:07:59.058Z,14.45
2023-05-05T02:10:26.721Z,14.45
2023-05-05T02:12:54.432Z,14.41
2023-05-05T02:15:23.737Z,14.41
2023-05-05T02:17:54.904Z,14.38
2023-05-05T02:20:24.180Z,14.38
2023-05-05T02:22:53.915Z,14.38
2023-05-05T02:25:23.621Z,14.40
2023-05-05T02:27:53.676Z,14.37
2023-05-05T02:30:21.749Z,14.32
2023-05-05T02:32:57.992Z,14.26
2023-05-05T02:35:33.164Z,14.23
2023-05-05T02:38:05.575Z,14.20
2023-05-05T02:40:42.077Z,14.26
2023-05-05T02:43:11.820Z,14.27
2023-05-05T02:45:39.033Z,14.29
2023-05-05T02:48:06.777Z,14.35
2023-05-05T02:50:38.176Z,14.36
2023-05-05T02:53:38.891Z,14.35
2023-05-05T02:56:21.295Z,14.33
2023-05-05T02:59:04.164Z,14.30
2023-05-05T03:01:46.500Z,14.27
2023-05-05T03:04:17.791Z,14.26
2023-05-05T03:06:53.705Z,14.26
2023-05-05T03:09:30.880Z,14.26
2023-05-05T03:12:02.158Z,14.33
2023-05-05T03:14:35.037Z,14.32
2023-05-05T03:17:04.464Z,14.32
2023-05-05T03:19:32.441Z,14.38
2023-05-05T03:22:03.992Z,14.45
2023-05-05T03:24:33.216Z,14.50
2023-05-05T03:27:05.139Z,14.56
2023-05-05T03:29:36.383Z,14.60
2023-05-05T03:32:07.206Z,14.63
2023-05-05T03:34:37.323Z,14.67
2023-05-05T03:37:08.401Z,14.71
2023-05-05T03:39:38.126Z,14.72
2023-05-05T03:42:06.539Z,14.75
2023-05-05T03:44:35.344Z,14.76
2023-05-05T03:47:02.246Z,14.76
2023-05-05T03:49:31.220Z,14.78
2023-05-05T03:51:58.564Z,14.81
2023-05-05T03:54:27.590Z,14.84
2023-05-05T03:56:56.511Z,14.86
2023-05-05T03:59:23.533Z,14.89
2023-05-05T04:01:51.111Z,14.91
2023-05-05T04:04:21.466Z,14.96
2023-05-05T04:06:48.955Z,14.90
2023-05-05T04:09:15.905Z,14.90
2023-05-05T04:11:43.674Z,14.92
2023-05-05T04:14:12.985Z,14.93
2023-05-05T04:16:40.647Z,14.93
2023-05-05T04:19:07.585Z,14.93
2023-05-05T04:21:37.911Z,14.91
2023-05-05T04:24:06.234Z,14.89
2023-05-05T04:26:33.253Z,14.88
2023-05-05T04:29:00.323Z,14.83
2023-05-05T04:31:29.149Z,14.83
2023-05-05T04:33:59.066Z,14.83
2023-05-05T04:36:28.717Z,14.83
2023-05-05T04:38:55.885Z,14.80
2023-05-05T04:41:23.004Z,14.78
2023-05-05T04:43:49.970Z,14.75
2023-05-05T04:46:19.932Z,14.73
2023-05-05T04:48:48.412Z,14.72
2023-05-05T04:51:15.503Z,14.73
2023-05-05T04:53:42.536Z,14.69
2023-05-05T04:56:09.523Z,14.68
2023-05-05T04:58:36.570Z,14.69
2023-05-05T05:01:03.582Z,14.71
2023-05-05T05:03:31.980Z,14.76
2023-05-05T05:06:00.764Z,14.80
2023-05-05T05:08:28.326Z,14.89
2023-05-05T05:10:55.652Z,15.00
2023-05-05T05:13:23.053Z,15.05
2023-05-05T05:15:50.935Z,15.11
2023-05-05T05:18:18.399Z,15.17
2023-05-05T05:20:48.996Z,15.22
2023-05-05T05:23:17.721Z,15.27
2023-05-05T05:25:48.698Z,15.29
2023-05-05T05:28:18.176Z,15.36
2023-05-05T05:30:56.125Z,15.45
2023-05-05T05:33:23.452Z,15.51
2023-05-05T05:35:51.865Z,15.59
2023-05-05T05:38:22.185Z,15.63
2023-05-05T05:40:52.228Z,15.64
2023-05-05T05:43:19.216Z,15.62
2023-05-05T05:45:46.495Z,15.61
2023-05-05T05:48:13.523Z,15.59
2023-05-05T05:50:40.677Z,15.58
2023-05-05T05:53:10.565Z,15.59
2023-05-05T05:55:38.911Z,15.64
2023-05-05T05:58:08.943Z,15.72
2023-05-05T06:00:38.236Z,15.76
2023-05-05T06:03:08.842Z,15.76
2023-05-05T06:05:38.299Z,15.74
2023-05-05T06:08:05.416Z,15.69
2023-05-05T06:10:36.291Z,15.72
2023-05-05T06:13:09.938Z,15.77
2023-05-05T06:15:43.806Z,15.82
2023-05-05T06:18:12.943Z,15.92
2023-05-05T06:20:40.026Z,16.01
2023-05-05T06:23:08.006Z,16.06
2023-05-05T06:25:38.038Z,16.11
2023-05-05T06:28:05.739Z,16.17
2023-05-05T06:30:34.587Z,16.19
2023-05-05T06:33:01.638Z,16.22
2023-05-05T06:35:30.298Z,16.25
2023-05-05T06:37:57.255Z,16.22
2023-05-05T06:40:26.774Z,16.18
2023-05-05T06:42:53.714Z,16.18
2023-05-05T06:45:26.291Z,16.18
2023-05-05T06:47:55.222Z,16.18
2023-05-05T06:50:22.420Z,16.21
2023-05-05T06:52:49.404Z,16.22
2023-05-05T06:55:17.041Z,16.22
2023-05-05T06:57:43.935Z,16.19
2023-05-05T07:00:12.301Z,16.17
2023-05-05T07:02:39.963Z,16.16
2023-05-05T07:05:08.919Z,16.16
2023-05-05T07:07:36.315Z,16.16
2023-05-05T07:10:03.270Z,16.21
2023-05-05T07:12:33.370Z,16.19
2023-05-05T07:15:04.805Z,16.20
2023-05-05T07:17:36.468Z,16.22
2023-05-05T07:20:03.943Z,16.24
2023-05-05T07:22:32.284Z,16.25
2023-05-05T07:25:02.603Z,16.26
2023-05-05T07:27:32.520Z,16.26
2023-05-05T07:30:05.559Z,16.28
2023-05-05T07:32:35.664Z,16.27
2023-05-05T07:35:02.596Z,16.26
2023-05-05T07:37:29.746Z,16.25
2023-05-05T07:39:58.914Z,16.27
2023-05-05T07:42:25.896Z,16.29
2023-05-05T07:44:53.067Z,16.32
2023-05-05T07:47:20.249Z,16.39
2023-05-05T07:49:47.177Z,16.46
2023-05-05T07:52:14.142Z,16.56
2023-05-05T07:54:42.385Z,16.64
2023-05-05T07:57:10.841Z,16.70
2023-05-05T07:59:38.642Z,16.78
2023-05-05T08:02:06.655Z,16.86
2023-05-05T08:04:36.339Z,16.97
2023-05-05T08:07:03.310Z,17.09
2023-05-05T08:09:30.494Z,17.16
2023-05-05T08:11:57.667Z,17.21
2023-05-05T08:14:25.958Z,17.26
2023-05-05T08:16:52.861Z,17.33
2023-05-05T08:19:28.576Z,17.36
2023-05-05T08:21:56.464Z,17.39
2023-05-05T08:24:23.436Z,17.46
2023-05-05T08:26:50.895Z,17.53
2023-05-05T08:29:17.927Z,17.56
2023-05-05T08:31:49.448Z,17.60
2023-05-05T08:34:17.064Z,17.60
2023-05-05T08:36:44.056Z,17.63
2023-05-05T08:39:11.020Z,17.67
2023-05-05T08:41:38.145Z,17.73
2023-05-05T08:44:05.184Z,17.81
2023-05-05T08:46:32.399Z,17.98
2023-05-05T08:49:03.840Z,18.17
2023-05-05T08:51:38.988Z,18.35
2023-05-05T08:54:06.990Z,18.42
2023-05-05T08:56:38.479Z,18.59
2023-05-05T08:59:06.161Z,18.84
2023-05-05T09:01:33.940Z,19.11
2023-05-05T09:04:03.831Z,19.25
2023-05-05T09:06:33.774Z,19.38
2023-05-05T09:09:01.508Z,19.39
2023-05-05T09:11:28.494Z,19.41
2023-05-05T09:13:55.901Z,19.49
2023-05-05T09:16:23.195Z,19.58
2023-05-05T09:18:50.703Z,19.63
2023-05-05T09:21:26.023Z,19.64
2023-05-05T09:24:09.981Z,19.62
2023-05-05T09:26:38.799Z,19.67
2023-05-05T09:29:06.155Z,19.75
2023-05-05T09:31:36.270Z,19.78
2023-05-05T09:34:16.445Z,19.75
2023-05-05T09:36:49.253Z,19.72
2023-05-05T09:39:18.407Z,19.73
2023-05-05T09:41:46.969Z,19.69
2023-05-05T09:44:17.433Z,19.62
2023-05-05T09:46:51.515Z,19.45
2023-05-05T09:49:23.636Z,19.35
2023-05-05T09:51:53.106Z,19.28
2023-05-05T09:54:24.595Z,19.28
2023-05-05T09:56:52.380Z,19.26
2023-05-05T09:59:20.148Z,19.25
2023-05-05T10:01:47.605Z,19.26
2023-05-05T10:04:28.979Z,19.29
2023-05-05T10:06:58.798Z,19.28
2023-05-05T10:09:28.171Z,19.33
2023-05-05T10:11:57.850Z,19.48
2023-05-05T10:14:25.642Z,19.58
2023-05-05T10:16:53.750Z,19.70
2023-05-05T10:19:22.790Z,19.83
2023-05-05T10:21:52.366Z,20.00
2023-05-05T10:24:34.544Z,20.20
2023-05-05T10:27:04.474Z,20.40
2023-05-05T10:29:39.227Z,20.76
2023-05-05T10:32:46.692Z,21.14
2023-05-05T10:35:09.203Z,21.75
2023-05-05T10:37:37.805Z,22.12
2023-05-05T10:40:08.399Z,22.40
2023-05-05T10:42:38.839Z,22.64
2023-05-05T10:45:07.581Z,22.87
2023-05-05T10:47:36.056Z,23.00
2023-05-05T10:50:11.452Z,23.07
2023-05-05T10:52:43.047Z,23.00
2023-05-05T10:55:15.571Z,23.00
2023-05-05T10:57:44.912Z,22.99
2023-05-05T11:00:50.637Z,23.05
2023-05-05T11:03:24.249Z,23.06
2023-05-05T11:06:12.977Z,23.01
2023-05-05T11:08:42.376Z,22.93
2023-05-05T11:11:14.249Z,22.83
2023-05-05T11:13:42.055Z,22.90
2023-05-05T11:16:44.305Z,23.42
2023-05-05T11:19:45.630Z,23.61
2023-05-05T11:22:13.054Z,23.68
2023-05-05T11:24:40.762Z,23.52
2023-05-05T11:27:10.237Z,23.38
2023-05-05T11:30:05.688Z,23.91
2023-05-05T11:32:36.468Z,24.12
2023-05-05T11:35:04.060Z,24.44
2023-05-05T11:37:31.110Z,24.36
2023-05-05T11:40:07.691Z,24.05
2023-05-05T11:42:36.450Z,23.84
2023-05-05T11:45:20.752Z,23.53
2023-05-05T11:47:47.732Z,23.32
2023-05-05T11:50:23.428Z,23.15
2023-05-05T11:52:51.004Z,22.93
2023-05-05T11:55:24.077Z,22.81
2023-05-05T11:57:53.514Z,22.69
2023-05-05T12:00:30.996Z,22.60
2023-05-05T12:02:58.277Z,23.02
2023-05-05T12:05:25.518Z,23.57
2023-05-05T12:07:57.733Z,24.09
2023-05-05T12:10:25.486Z,24.39
2023-05-05T12:12:55.543Z,24.45
2023-05-05T12:15:32.692Z,24.74
2023-05-05T12:18:02.358Z,25.14
2023-05-05T12:20:32.308Z,25.50
2023-05-05T12:23:03.982Z,25.94
2023-05-05T12:25:38.444Z,26.22
2023-05-05T12:28:09.944Z,26.16
2023-05-05T12:30:37.760Z,25.91
2023-05-05T12:33:06.630Z,25.50
2023-05-05T12:35:34.757Z,25.17
2023-05-05T12:38:01.754Z,24.98
2023-05-05T12:40:55.812Z,25.25
2023-05-05T12:43:34.453Z,25.83
2023-05-05T12:46:03.449Z,25.78
2023-05-05T12:48:30.812Z,25.57
2023-05-05T12:51:11.485Z,25.64
2023-05-05T12:53:38.773Z,25.98
2023-05-05T12:56:05.896Z,26.32
2023-05-05T12:58:52.316Z,26.55
2023-05-05T13:01:19.351Z,26.75
2023-05-05T13:03:46.288Z,26.97
2023-05-05T13:06:20.657Z,26.59
2023-05-05T13:08:48.239Z,26.22
2023-05-05T13:11:15.241Z,26.10
2023-05-05T13:13:42.480Z,25.99
2023-05-05T13:16:10.959Z,25.69
2023-05-05T13:18:44.843Z,25.48
2023-05-05T13:21:12.077Z,25.27
2023-05-05T13:23:42.308Z,25.09
2023-05-05T13:26:09.722Z,25.00
2023-05-05T13:28:36.721Z,24.93
2023-05-05T13:31:03.717Z,24.91
2023-05-05T13:33:33.491Z,24.97
2023-05-05T13:36:00.824Z,25.09
2023-05-05T13:38:27.792Z,25.14
2023-05-05T13:40:54.743Z,25.29
2023-05-05T13:43:24.014Z,25.28
2023-05-05T13:45:51.009Z,25.20
2023-05-05T13:48:17.916Z,25.10
2023-05-05T13:50:46.405Z,25.13
2023-05-05T13:53:13.346Z,25.09
2023-05-05T13:55:40.297Z,24.93
2023-05-05T13:58:07.636Z,24.84
2023-05-05T14:00:35.438Z,24.76
2023-05-05T14:03:06.050Z,24.66
2023-05-05T14:05:34.030Z,24.55
2023-05-05T14:08:02.390Z,24.42
2023-05-05T14:10:31.041Z,24.18
2023-05-05T14:12:58.048Z,23.95
2023-05-05T14:15:25.026Z,23.76
2023-05-05T14:17:51.968Z,23.65
2023-05-05T14:20:19.083Z,23.58
2023-05-05T14:22:47.644Z,23.51
2023-05-05T14:25:19.278Z,23.43
2023-05-05T14:27:46.260Z,23.35
2023-05-05T14:30:14.257Z,23.27
2023-05-05T14:32:41.218Z,23.14
2023-05-05T14:35:08.479Z,22.97
2023-05-05T14:37:36.337Z,22.86
2023-05-05T14:40:05.540Z,22.78
2023-05-05T14:42:34.130Z,22.71
2023-05-05T14:45:03.558Z,22.65
2023-05-05T14:47:30.838Z,22.60
2023-05-05T14:49:57.786Z,22.50
2023-05-05T14:52:24.749Z,22.36
2023-05-05T14:54:51.880Z,22.26
2023-05-05T14:57:18.886Z,22.14
2023-05-05T14:59:51.997Z,22.12
2023-05-05T15:02:19.178Z,22.07
2023-05-05T15:04:48.068Z,22.00
2023-05-05T15:07:16.267Z,21.97
2023-05-05T15:09:44.978Z,21.92
2023-05-05T15:12:12.031Z,21.89
2023-05-05T15:14:39.940Z,21.88
2023-05-05T15:17:08.284Z,21.86
2023-05-05T15:19:37.942Z,21.82
2023-05-05T15:22:04.956Z,21.79
2023-05-05T15:24:31.842Z,21.77
2023-05-05T15:26:58.813Z,21.77
2023-05-05T15:29:26.098Z,21.73
2023-05-05T15:31:53.049Z,21.72
2023-05-05T15:34:21.373Z,21.70
2023-05-05T15:36:48.846Z,21.65
2023-05-05T15:39:15.754Z,21.61
2023-05-05T15:41:45.723Z,21.59
2023-05-05T15:44:12.679Z,21.59
2023-05-05T15:46:39.833Z,21.53
2023-05-05T15:49:06.885Z,21.44
2023-05-05T15:51:35.229Z,21.40
2023-05-05T15:54:02.180Z,21.29
2023-05-05T15:56:29.571Z,21.18
2023-05-05T15:58:56.928Z,21.09
2023-05-05T16:01:24.114Z,21.00
2023-05-05T16:03:51.160Z,20.89
2023-05-05T16:06:18.070Z,20.79
2023-05-05T16:08:47.846Z,20.76
2023-05-05T16:11:14.876Z,20.74
2023-05-05T16:13:42.631Z,20.72
2023-05-05T16:16:09.602Z,20.68
2023-05-05T16:18:36.552Z,20.65
2023-05-05T16:21:06.171Z,20.59
2023-05-05T16:23:33.180Z,20.47
2023-05-05T16:26:01.654Z,20.40
2023-05-05T16:28:28.676Z,20.30
2023-05-05T16:30:56.137Z,20.16
2023-05-05T16:33:23.097Z,20.06
2023-05-05T16:35:50.078Z,19.95
2023-05-05T16:38:17.098Z,19.84
2023-05-05T16:40:44.015Z,19.74
2023-05-05T16:43:12.607Z,19.63
2023-05-05T16:45:39.567Z,19.53
2023-05-05T16:48:08.938Z,19.45
2023-05-05T16:50:36.297Z,19.33
2023-05-05T16:53:03.414Z,19.27
2023-05-05T16:55:30.459Z,19.22
2023-05-05T16:57:57.359Z,19.16
2023-05-05T17:00:25.819Z,19.09
2023-05-05T17:02:52.876Z,19.00
2023-05-05T17:05:19.910Z,18.93
2023-05-05T17:07:48.287Z,18.86
2023-05-05T17:10:15.537Z,18.78
2023-05-05T17:12:42.810Z,18.68
2023-05-05T17:15:10.629Z,18.61
2023-05-05T17:17:41.031Z,18.53
2023-05-05T17:20:10.410Z,18.46
2023-05-05T17:22:37.505Z,18.35
2023-05-05T17:25:05.344Z,18.26
2023-05-05T17:27:32.250Z,18.14
2023-05-05T17:29:59.270Z,18.02
2023-05-05T17:32:26.818Z,17.90
2023-05-05T17:34:56.408Z,17.82
2023-05-05T17:37:23.375Z,17.71
2023-05-05T17:39:50.421Z,17.58
2023-05-05T17:42:22.708Z,17.49
2023-05-05T17:44:50.195Z,17.45
2023-05-05T17:47:22.155Z,17.41
2023-05-05T17:49:49.216Z,17.39
2023-05-05T17:52:17.604Z,17.36
2023-05-05T17:54:48.756Z,17.32
2023-05-05T17:57:21.058Z,17.32
2023-05-05T17:59:49.672Z,17.26
2023-05-05T18:02:17.233Z,17.20
2023-05-05T18:04:44.251Z,17.15
2023-05-05T18:07:12.377Z,17.05
2023-05-05T18:09:41.068Z,17.00
2023-05-05T18:12:10.622Z,16.93
2023-05-05T18:14:37.623Z,16.85
2023-05-05T18:17:04.823Z,16.79
2023-05-05T18:19:32.060Z,16.74
2023-05-05T18:21:59.191Z,16.69
2023-05-05T18:24:27.568Z,16.64
2023-05-05T18:26:56.745Z,16.60
2023-05-05T18:29:23.854Z,16.55
2023-05-05T18:31:54.951Z,16.51
2023-05-05T18:34:22.211Z,16.49
2023-05-05T18:36:50.815Z,16.45
2023-05-05T18:39:17.935Z,16.41
2023-05-05T18:41:45.237Z,16.43
2023-05-05T18:44:13.761Z,16.42
2023-05-05T18:46:40.812Z,16.42
2023-05-05T18:49:08.412Z,16.40
2023-05-05T18:51:35.336Z,16.35
2023-05-05T18:54:02.355Z,16.26
2023-05-05T18:56:29.486Z,16.18
2023-05-05T18:58:56.629Z,16.07
2023-05-05T19:01:25.045Z,16.01
2023-05-05T19:03:52.043Z,15.96
2023-05-05T19:06:19.282Z,15.92
2023-05-05T19:08:46.611Z,15.88
2023-05-05T19:11:15.120Z,15.85
2023-05-05T19:13:42.558Z,15.82
2023-05-05T19:16:11.189Z,15.80
2023-05-05T19:18:40.031Z,15.80
2023-05-05T19:21:07.003Z,15.79
2023-05-05T19:23:36.059Z,15.76
2023-05-05T19:26:06.020Z,15.76
2023-05-05T19:28:33.014Z,15.73
2023-05-05T19:30:59.956Z,15.67
2023-05-05T19:33:27.173Z,15.55
2023-05-05T19:35:55.670Z,15.34
2023-05-05T19:38:22.688Z,15.16
2023-05-05T19:40:50.239Z,15.04
2023-05-05T19:43:17.269Z,14.93
2023-05-05T19:45:44.242Z,14.86
2023-05-05T19:48:11.202Z,14.80
2023-05-05T19:50:38.182Z,14.80
2023-05-05T19:53:06.579Z,14.76
2023-05-05T19:55:33.741Z,14.59
2023-05-05T19:58:00.950Z,14.45
2023-05-05T20:00:28.016Z,14.32
2023-05-05T20:02:55.055Z,14.11
2023-05-05T20:05:22.488Z,14.03
2023-05-05T20:07:50.854Z,14.01
2023-05-05T20:10:19.480Z,14.06
2023-05-05T20:12:48.465Z,14.08
2023-05-05T20:15:18.814Z,13.99
2023-05-05T20:17:46.946Z,13.90
2023-05-05T20:20:17.193Z,13.88
2023-05-05T20:22:44.220Z,13.88
2023-05-05T20:25:11.376Z,13.88
2023-05-05T20:27:39.977Z,13.93
2023-05-05T20:30:09.140Z,13.97
2023-05-05T20:32:36.525Z,13.95
2023-05-05T20:35:05.587Z,13.99
2023-05-05T20:37:32.673Z,14.08
2023-05-05T20:39:59.591Z,14.11
2023-05-05T20:42:27.784Z,14.10
2023-05-05T20:44:56.418Z,14.05
2023-05-05T20:47:24.296Z,13.98
2023-05-05T20:49:52.412Z,13.97
2023-05-05T20:52:19.811Z,13.98
2023-05-05T20:54:47.029Z,13.96
2023-05-05T20:57:13.973Z,13.86
2023-05-05T20:59:41.048Z,13.75
2023-05-05T21:02:10.668Z,13.70
2023-05-05T21:04:37.648Z,13.73
2023-05-05T21:07:04.603Z,13.75
2023-05-05T21:09:31.765Z,13.74
2023-05-05T21:11:58.815Z,13.61
2023-05-05T21:14:25.897Z,13.55
2023-05-05T21:16:53.064Z,13.38
2023-05-05T21:19:21.827Z,13.21
2023-05-05T21:21:48.844Z,13.18
2023-05-05T21:24:15.804Z,13.13
2023-05-05T21:26:44.274Z,13.12
2023-05-05T21:29:11.731Z,13.11
2023-05-05T21:31:38.908Z,13.14
2023-05-05T21:34:05.973Z,13.14
2023-05-05T21:36:34.408Z,13.15
2023-05-05T21:39:01.656Z,13.20
2023-05-05T21:41:28.957Z,13.17
2023-05-05T21:43:56.150Z,13.16
2023-05-05T21:46:23.223Z,13.12
2023-05-05T21:48:50.448Z,13.11
2023-05-05T21:51:17.596Z,13.10
2023-05-05T21:53:46.209Z,13.16
2023-05-05T21:56:13.142Z,13.18
2023-05-05T21:58:41.242Z,13.19
2023-05-05T22:01:08.264Z,13.17
2023-05-05T22:03:36.404Z,13.18
2023-05-05T22:06:03.548Z,13.21
2023-05-05T22:08:30.619Z,13.23
2023-05-05T22:10:59.003Z,13.20
2023-05-05T22:13:25.998Z,13.15
2023-05-05T22:15:53.043Z,13.11
2023-05-05T22:18:20.088Z,13.11
2023-05-05T22:20:47.132Z,13.09
2023-05-05T22:23:14.228Z,13.11
2023-05-05T22:25:41.332Z,13.12
2023-05-05T22:28:09.674Z,13.09
2023-05-05T22:30:36.713Z,13.09
2023-05-05T22:33:04.169Z,13.13
2023-05-05T22:35:31.231Z,13.17
2023-05-05T22:37:58.269Z,13.17
2023-05-05T22:40:25.527Z,13.11
2023-05-05T22:42:53.021Z,13.03
2023-05-05T22:45:21.760Z,12.98
2023-05-05T22:47:48.745Z,13.01
2023-05-05T22:50:15.713Z,13.02
2023-05-05T22:52:45.448Z,13.04
2023-05-05T22:55:16.063Z,13.07
2023-05-05T22:57:43.008Z,13.08
2023-05-05T23:00:10.864Z,13.00
2023-05-05T23:02:39.646Z,12.94
2023-05-05T23:05:07.517Z,12.90
2023-05-05T23:07:34.571Z,12.70
2023-05-05T23:10:01.549Z,12.56
2023-05-05T23:12:28.528Z,12.48
2023-05-05T23:14:55.785Z,12.48
2023-05-05T23:17:22.826Z,12.47
2023-05-05T23:19:51.490Z,12.39
2023-05-05T23:22:18.534Z,12.38
2023-05-05T23:24:45.768Z,12.32
2023-05-05T23:27:13.261Z,12.31
2023-05-05T23:29:40.182Z,12.29
2023-05-05T23:32:07.202Z,12.23
2023-05-05T23:34:34.120Z,12.18
2023-05-05T23:37:04.620Z,12.15
2023-05-05T23:39:33.583Z,12.06
2023-05-05T23:42:00.477Z,12.00
2023-05-05T23:44:27.749Z,11.97
2023-05-05T23:46:54.704Z,11.89
2023-05-05T23:49:21.740Z,11.85
2023-05-05T23:51:48.648Z,11.81
2023-05-05T23:54:16.912Z,11.77
2023-05-05T23:56:43.965Z,11.76
2023-05-05T23:59:10.898Z,11.73
